NO-0012 weather

Frosta Airfield
Frosta, Nord-Trøndelag, Norway

Public forecast

Using degrees Celsius for public forecast. Weather courtesy of forecast.io.

Closest aviation weather report (METAR) to Frosta Airfield

Closest report is Trondheim Airport Værnes, 8.9 nm (16.4 km) SE. Retrieved 2020/04/10 03:20 UTC (22 minutes ago):

ENVA 100320Z 27014KT 9999 VCSH FEW006 BKN009 02/00 Q1023 RMK WIND 670FT 27020KT

Closest aviation forecast (TAF) to Frosta Airfield

Closest forecast is Trondheim Airport Værnes, 8.9 nm (16.4 km) SE. Retrieved 2020-04-10 00:59 UTC (3 hours ago):

TAF ENVA 092300Z 1000/1024 27012KT 9999 FEW015CB BKN025 TEMPO 1000/1013 28022G32KT 1500 SHSNRA VV008 TEMPO 1014/1020 2500 RASN BKN008